createdAt,value
2022-10-15T00:00:41.063Z,48.33
2022-10-15T00:03:08.042Z,47.78
2022-10-15T00:05:38.410Z,48.60
2022-10-15T00:08:06.344Z,47.22
2022-10-15T00:10:33.170Z,46.45
2022-10-15T00:13:00.296Z,47.95
2022-10-15T00:15:27.652Z,46.10
2022-10-15T00:17:54.451Z,46.83
2022-10-15T00:20:21.909Z,47.30
2022-10-15T00:22:48.703Z,49.78
2022-10-15T00:25:15.508Z,47.85
2022-10-15T00:27:42.256Z,48.58
2022-10-15T00:30:09.628Z,50.40
2022-10-15T00:32:36.458Z,49.90
2022-10-15T00:35:03.627Z,49.47
2022-10-15T00:37:30.343Z,50.35
2022-10-15T00:39:57.191Z,49.40
2022-10-15T00:42:24.422Z,47.67
2022-10-15T00:44:55.168Z,45.65
2022-10-15T00:47:39.992Z,48.60
2022-10-15T00:50:14.395Z,45.22
2022-10-15T00:52:58.998Z,45.58
2022-10-15T00:55:39.173Z,46.17
2022-10-15T01:00:39.372Z,48.58
2022-10-15T01:03:06.159Z,48.80
2022-10-15T01:05:34.746Z,48.20
2022-10-15T01:08:01.480Z,46.95
2022-10-15T01:10:44.229Z,48.25
2022-10-15T01:13:44.526Z,45.65
2022-10-15T01:16:30.894Z,46.90
2022-10-15T01:19:30.475Z,44.25
2022-10-15T01:21:57.192Z,46.33
2022-10-15T01:24:53.942Z,47.00
2022-10-15T01:27:35.598Z,48.80
2022-10-15T01:30:21.346Z,50.15
2022-10-15T01:33:24.106Z,48.00
2022-10-15T01:36:03.964Z,48.55
2022-10-15T01:38:45.721Z,46.88
2022-10-15T01:41:20.188Z,47.10
2022-10-15T01:44:17.723Z,46.45
2022-10-15T01:46:59.493Z,46.83
2022-10-15T01:49:30.333Z,47.78
2022-10-15T01:52:00.222Z,46.60
2022-10-15T01:54:28.545Z,47.25
2022-10-15T01:56:57.196Z,47.75
2022-10-15T01:59:28.810Z,47.67
2022-10-15T02:01:57.912Z,45.30
2022-10-15T02:04:28.290Z,47.80
2022-10-15T02:07:07.011Z,48.40
2022-10-15T02:09:42.644Z,47.63
2022-10-15T02:12:15.457Z,48.30
2022-10-15T02:15:01.744Z,48.88
2022-10-15T02:17:57.459Z,48.55
2022-10-15T02:20:30.735Z,49.90
2022-10-15T02:23:06.233Z,46.25
2022-10-15T02:25:35.213Z,47.80
2022-10-15T02:28:03.705Z,49.80
2022-10-15T02:30:32.621Z,50.10
2022-10-15T02:33:00.270Z,49.45
2022-10-15T02:35:28.276Z,51.10
2022-10-15T02:37:58.161Z,50.15
2022-10-15T02:40:31.129Z,50.83
2022-10-15T02:42:58.039Z,50.63
2022-10-15T02:45:24.800Z,52.42
2022-10-15T02:47:51.628Z,52.70
2022-10-15T02:50:18.372Z,54.05
2022-10-15T02:52:45.329Z,51.97
2022-10-15T02:55:12.248Z,54.40
2022-10-15T02:57:39.008Z,51.63
2022-10-15T03:00:06.435Z,53.30
2022-10-15T03:02:33.180Z,52.00
2022-10-15T03:04:59.939Z,53.22
2022-10-15T03:07:26.812Z,52.10
2022-10-15T03:09:53.719Z,52.10
2022-10-15T03:12:23.254Z,52.65
2022-10-15T03:14:50.213Z,55.08
2022-10-15T03:17:16.901Z,52.65
2022-10-15T03:19:43.981Z,51.80
2022-10-15T03:22:11.158Z,52.15
2022-10-15T03:24:38.055Z,54.67
2022-10-15T03:27:04.833Z,54.78
2022-10-15T03:29:31.595Z,53.33
2022-10-15T03:31:58.317Z,55.55
2022-10-15T03:34:25.208Z,53.75
2022-10-15T03:36:51.967Z,55.75
2022-10-15T03:39:18.715Z,54.72
2022-10-15T03:41:45.661Z,55.40
2022-10-15T03:44:12.421Z,52.58
2022-10-15T03:46:39.241Z,51.28
2022-10-15T03:49:06.132Z,51.80
2022-10-15T03:51:32.941Z,52.50
2022-10-15T03:53:59.724Z,53.13
2022-10-15T03:56:26.512Z,55.47
2022-10-15T03:58:53.292Z,52.60
2022-10-15T04:01:20.225Z,52.25
2022-10-15T04:03:47.196Z,55.40
2022-10-15T04:06:14.079Z,51.88
2022-10-15T04:08:40.872Z,54.25
2022-10-15T04:11:07.774Z,52.95
2022-10-15T04:13:34.504Z,55.42
2022-10-15T04:16:03.837Z,54.92
2022-10-15T04:18:30.686Z,54.75
2022-10-15T04:21:01.264Z,54.72
2022-10-15T04:23:28.408Z,55.90
2022-10-15T04:25:59.398Z,52.53
2022-10-15T04:28:26.198Z,53.90
2022-10-15T04:30:59.433Z,52.25
2022-10-15T04:33:26.847Z,52.50
2022-10-15T04:36:01.747Z,51.08
2022-10-15T04:38:28.727Z,51.30
2022-10-15T04:41:07.136Z,52.85
2022-10-15T04:43:34.723Z,55.58
2022-10-15T04:46:02.948Z,56.03
2022-10-15T04:48:31.481Z,55.28
2022-10-15T04:51:15.907Z,55.50
2022-10-15T04:53:42.977Z,55.10
2022-10-15T04:56:15.886Z,55.22
2022-10-15T04:58:43.814Z,54.35
2022-10-15T05:01:13.990Z,54.40
2022-10-15T05:03:45.041Z,53.50
2022-10-15T05:06:15.604Z,53.60
2022-10-15T05:08:43.370Z,52.83
2022-10-15T05:11:13.713Z,56.40
2022-10-15T05:13:40.566Z,54.17
2022-10-15T05:16:20.459Z,53.88
2022-10-15T05:18:52.988Z,56.08
2022-10-15T05:21:20.127Z,55.88
2022-10-15T05:23:47.906Z,53.00
2022-10-15T05:26:17.391Z,54.35
2022-10-15T05:28:44.253Z,54.90
2022-10-15T05:31:18.327Z,53.47
2022-10-15T05:33:45.469Z,52.22
2022-10-15T05:36:21.778Z,50.42
2022-10-15T05:38:51.180Z,50.83
2022-10-15T05:41:18.635Z,49.90
2022-10-15T05:43:49.851Z,53.45
2022-10-15T05:46:18.041Z,52.45
2022-10-15T05:48:52.807Z,53.88
2022-10-15T05:51:19.905Z,51.95
2022-10-15T05:53:46.755Z,53.08
2022-10-15T05:56:15.428Z,52.33
2022-10-15T05:58:42.458Z,51.72
2022-10-15T06:01:11.741Z,52.42
2022-10-15T06:03:39.963Z,53.55
2022-10-15T06:06:21.286Z,52.38
2022-10-15T06:08:48.752Z,53.20
2022-10-15T06:11:16.309Z,52.33
2022-10-15T06:13:44.106Z,51.25
2022-10-15T06:16:12.532Z,52.75
2022-10-15T06:18:40.135Z,53.28
2022-10-15T06:21:08.165Z,52.50
2022-10-15T06:23:35.575Z,52.05
2022-10-15T06:26:07.704Z,51.45
2022-10-15T06:28:35.138Z,49.78
2022-10-15T06:31:02.406Z,51.85
2022-10-15T06:33:30.049Z,51.65
2022-10-15T06:36:01.917Z,49.08
2022-10-15T06:40:55.688Z,49.80
2022-10-15T06:43:22.618Z,50.30
2022-10-15T06:45:49.435Z,49.53
2022-10-15T06:48:16.178Z,49.35
2022-10-15T06:50:42.909Z,47.33
2022-10-15T06:53:09.683Z,50.47
2022-10-15T06:55:36.688Z,48.83
2022-10-15T06:58:03.441Z,48.17
2022-10-15T07:00:30.410Z,47.80
2022-10-15T07:02:57.224Z,48.45
2022-10-15T07:05:23.993Z,47.20
2022-10-15T07:07:55.177Z,47.42
2022-10-15T07:10:22.931Z,47.30
2022-10-15T07:12:49.812Z,46.35
2022-10-15T07:15:17.129Z,48.22
2022-10-15T07:17:48.624Z,46.40
2022-10-15T07:20:20.149Z,47.20
2022-10-15T07:22:50.234Z,48.25
2022-10-15T07:25:17.074Z,47.40
2022-10-15T07:27:43.815Z,48.03
2022-10-15T07:30:11.110Z,49.47
2022-10-15T07:32:38.126Z,49.00
2022-10-15T07:35:05.372Z,48.58
2022-10-15T07:37:32.791Z,48.58
2022-10-15T07:39:59.600Z,47.58
2022-10-15T07:42:27.067Z,47.85
2022-10-15T07:44:53.875Z,49.47
2022-10-15T07:47:21.008Z,47.75
2022-10-15T07:49:47.903Z,45.05
2022-10-15T07:52:14.736Z,46.08
2022-10-15T07:54:41.568Z,46.13
2022-10-15T07:57:09.125Z,44.15
2022-10-15T07:59:36.286Z,50.83
2022-10-15T08:02:03.069Z,49.22
2022-10-15T08:04:30.006Z,44.63
2022-10-15T08:07:01.819Z,41.22
2022-10-15T08:09:28.844Z,45.40
2022-10-15T08:11:55.712Z,45.47
2022-10-15T08:14:22.568Z,45.53
2022-10-15T08:16:49.601Z,43.85
2022-10-15T08:19:17.806Z,44.95
2022-10-15T08:21:47.434Z,45.90
2022-10-15T08:24:14.408Z,46.42
2022-10-15T08:26:41.287Z,46.08
2022-10-15T08:29:08.175Z,43.63
2022-10-15T08:31:35.336Z,45.88
2022-10-15T08:34:03.150Z,45.35
2022-10-15T08:36:29.973Z,44.67
2022-10-15T08:38:56.886Z,44.22
2022-10-15T08:41:36.321Z,45.17
2022-10-15T08:44:04.007Z,44.88
2022-10-15T08:46:39.403Z,45.97
2022-10-15T08:49:14.321Z,44.92
2022-10-15T08:51:48.255Z,45.08
2022-10-15T08:54:17.898Z,46.17
2022-10-15T08:56:49.182Z,46.05
2022-10-15T08:59:49.543Z,46.70
2022-10-15T09:02:38.967Z,45.10
2022-10-15T09:05:26.026Z,46.22
2022-10-15T09:07:55.527Z,47.47
2022-10-15T09:10:47.998Z,48.42
2022-10-15T09:13:22.815Z,46.50
2022-10-15T09:15:57.159Z,49.25
2022-10-15T09:18:27.540Z,46.78
2022-10-15T09:20:54.865Z,47.13
2022-10-15T09:23:25.589Z,47.08
2022-10-15T09:26:14.952Z,46.07
2022-10-15T09:29:26.052Z,48.22
2022-10-15T09:32:01.474Z,46.50
2022-10-15T09:34:40.599Z,45.28
2022-10-15T09:37:19.285Z,47.80
2022-10-15T09:40:15.492Z,47.70
2022-10-15T09:42:44.944Z,46.58
2022-10-15T09:45:15.578Z,46.83
2022-10-15T09:47:43.695Z,46.65
2022-10-15T09:50:13.112Z,44.63
2022-10-15T09:53:00.983Z,46.78
2022-10-15T09:55:49.258Z,46.70
2022-10-15T09:58:25.185Z,46.80
2022-10-15T10:01:02.536Z,46.58
2022-10-15T10:03:31.913Z,48.15
2022-10-15T10:06:10.863Z,46.70
2022-10-15T10:08:57.746Z,47.22
2022-10-15T10:11:26.730Z,48.42
2022-10-15T10:14:01.114Z,46.92
2022-10-15T10:16:30.077Z,47.72
2022-10-15T10:19:15.277Z,46.90
2022-10-15T10:21:43.377Z,48.33
2022-10-15T10:24:28.596Z,50.00
2022-10-15T10:26:55.848Z,48.15
2022-10-15T10:29:36.786Z,46.63
2022-10-15T10:32:31.580Z,48.60
2022-10-15T10:35:00.919Z,47.53
2022-10-15T10:37:28.808Z,47.30
2022-10-15T10:40:00.781Z,46.95
2022-10-15T10:42:33.153Z,46.00
2022-10-15T10:45:23.172Z,48.45
2022-10-15T10:47:50.409Z,49.85
2022-10-15T10:50:30.147Z,48.72
2022-10-15T10:52:59.993Z,48.28
2022-10-15T10:55:37.515Z,48.20
2022-10-15T10:58:04.774Z,48.25
2022-10-15T11:00:42.534Z,48.17
2022-10-15T11:03:36.869Z,48.13
2022-10-15T11:06:23.257Z,48.47
2022-10-15T11:09:02.093Z,48.33
2022-10-15T11:11:57.972Z,49.05
2022-10-15T11:15:12.141Z,48.35
2022-10-15T11:18:02.586Z,48.10
2022-10-15T11:21:13.817Z,50.38
2022-10-15T11:24:09.883Z,50.30
2022-10-15T11:26:59.187Z,50.05
2022-10-15T11:29:41.852Z,51.08
2022-10-15T11:32:25.291Z,51.65
2022-10-15T11:34:58.563Z,50.05
2022-10-15T11:37:43.754Z,52.83
2022-10-15T11:40:20.386Z,50.45
2022-10-15T11:43:00.158Z,49.42
2022-10-15T11:45:39.659Z,49.05
2022-10-15T11:48:16.112Z,48.90
2022-10-15T11:50:57.644Z,50.53
2022-10-15T11:53:33.035Z,48.85
2022-10-15T11:56:15.676Z,49.97
2022-10-15T11:58:55.783Z,50.53
2022-10-15T12:01:35.966Z,49.38
2022-10-15T12:04:22.436Z,49.45
2022-10-15T12:06:52.808Z,50.15
2022-10-15T12:09:26.082Z,49.05
2022-10-15T12:12:04.301Z,49.15
2022-10-15T12:14:55.532Z,49.85
2022-10-15T12:17:34.319Z,50.53
2022-10-15T12:20:11.954Z,47.72
2022-10-15T12:22:40.518Z,50.80
2022-10-15T12:25:36.455Z,49.20
2022-10-15T12:28:25.870Z,50.35
2022-10-15T12:31:06.411Z,49.38
2022-10-15T12:33:45.113Z,49.88
2022-10-15T12:36:30.499Z,48.10
2022-10-15T12:39:16.045Z,48.90
2022-10-15T12:41:54.248Z,47.38
2022-10-15T12:44:34.911Z,47.80
2022-10-15T12:47:01.740Z,46.05
2022-10-15T12:49:32.065Z,45.85
2022-10-15T12:52:00.357Z,46.15
2022-10-15T12:54:44.690Z,46.80
2022-10-15T12:57:30.452Z,47.17
2022-10-15T12:59:59.352Z,46.03
2022-10-15T13:02:32.350Z,44.70
2022-10-15T13:04:59.188Z,45.33
2022-10-15T13:07:26.515Z,44.28
2022-10-15T13:09:53.864Z,43.05
2022-10-15T13:12:27.351Z,43.00
2022-10-15T13:15:04.150Z,44.00
2022-10-15T13:17:33.754Z,43.97
2022-10-15T13:20:11.140Z,43.65
2022-10-15T13:22:37.949Z,43.85
2022-10-15T13:25:05.114Z,42.67
2022-10-15T13:27:35.614Z,42.25
2022-10-15T13:30:16.518Z,43.10
2022-10-15T13:32:55.914Z,43.97
2022-10-15T13:35:29.091Z,43.42
2022-10-15T13:37:57.506Z,43.72
2022-10-15T13:40:30.263Z,43.10
2022-10-15T13:43:08.522Z,44.13
2022-10-15T13:45:35.385Z,43.58
2022-10-15T13:48:02.159Z,45.22
2022-10-15T13:50:31.851Z,43.95
2022-10-15T13:53:20.256Z,43.65
2022-10-15T13:55:52.628Z,43.63
2022-10-15T13:58:23.559Z,43.60
2022-10-15T14:01:09.197Z,43.42
2022-10-15T14:03:38.725Z,44.25
2022-10-15T14:06:26.810Z,42.35
2022-10-15T14:08:59.907Z,39.83
2022-10-15T14:11:28.597Z,42.80
2022-10-15T14:13:58.199Z,43.58
2022-10-15T14:16:33.201Z,43.13
2022-10-15T14:19:11.077Z,42.45
2022-10-15T14:21:44.632Z,43.25
2022-10-15T14:24:14.117Z,42.05
2022-10-15T14:26:41.724Z,45.13
2022-10-15T14:29:19.367Z,43.53
2022-10-15T14:31:48.932Z,41.33
2022-10-15T14:34:45.331Z,42.25
2022-10-15T14:37:37.250Z,43.53
2022-10-15T14:40:13.066Z,42.75
2022-10-15T14:43:07.767Z,43.33
2022-10-15T14:45:43.855Z,42.67
2022-10-15T14:48:18.111Z,43.42
2022-10-15T14:50:44.950Z,44.15
2022-10-15T14:53:19.175Z,42.63
2022-10-15T14:55:53.379Z,42.97
2022-10-15T14:58:22.387Z,41.80
2022-10-15T15:00:57.049Z,42.97
2022-10-15T15:03:29.378Z,41.42
2022-10-15T15:05:57.521Z,41.92
2022-10-15T15:08:25.796Z,41.28
2022-10-15T15:10:55.394Z,41.97
2022-10-15T15:13:27.950Z,41.72
2022-10-15T15:15:55.102Z,40.80
2022-10-15T15:18:21.961Z,41.38
2022-10-15T15:20:50.494Z,42.63
2022-10-15T15:23:23.822Z,42.90
2022-10-15T15:25:51.483Z,42.70
2022-10-15T15:28:24.173Z,42.63
2022-10-15T15:31:06.323Z,40.83
2022-10-15T15:33:33.862Z,41.15
2022-10-15T15:36:11.854Z,42.08
2022-10-15T15:38:38.913Z,40.50
2022-10-15T15:41:15.059Z,41.63
2022-10-15T15:43:42.431Z,39.00
2022-10-15T15:46:09.614Z,42.28
2022-10-15T15:48:36.750Z,41.10
2022-10-15T15:51:06.864Z,42.53
2022-10-15T15:53:33.801Z,42.38
2022-10-15T15:56:00.494Z,44.30
2022-10-15T15:58:27.510Z,42.50
2022-10-15T16:00:54.232Z,43.42
2022-10-15T16:03:21.014Z,43.88
2022-10-15T16:08:21.764Z,42.00
2022-10-15T16:10:48.555Z,43.92
2022-10-15T16:13:15.312Z,43.00
2022-10-15T16:15:42.098Z,41.92
2022-10-15T16:18:09.319Z,41.95
2022-10-15T16:20:39.500Z,40.53
2022-10-15T16:23:06.307Z,42.10
2022-10-15T16:25:33.136Z,43.15
2022-10-15T16:28:01.885Z,42.85
2022-10-15T16:30:29.412Z,44.60
2022-10-15T16:32:56.200Z,43.70
2022-10-15T16:35:23.341Z,45.53
2022-10-15T16:37:52.641Z,43.45
2022-10-15T16:40:19.543Z,44.63
2022-10-15T16:42:46.269Z,43.28
2022-10-15T16:45:13.022Z,44.15
2022-10-15T16:47:39.773Z,44.72
2022-10-15T16:50:07.357Z,41.55
2022-10-15T16:52:34.869Z,44.00
2022-10-15T16:55:01.595Z,44.35
2022-10-15T16:57:28.422Z,44.70
2022-10-15T16:59:55.726Z,43.03
2022-10-15T17:02:22.873Z,43.08
2022-10-15T17:04:49.874Z,43.15
2022-10-15T17:07:17.343Z,43.30
2022-10-15T17:09:45.101Z,44.50
2022-10-15T17:12:12.214Z,42.10
2022-10-15T17:14:39.019Z,45.72
2022-10-15T17:17:07.681Z,43.92
2022-10-15T17:19:35.138Z,42.95
2022-10-15T17:22:01.942Z,39.30
2022-10-15T17:24:28.752Z,39.55
2022-10-15T17:26:57.859Z,37.67
2022-10-15T17:29:27.853Z,38.45
2022-10-15T17:31:57.593Z,37.95
2022-10-15T17:34:25.840Z,37.88
2022-10-15T17:36:53.946Z,39.15
2022-10-15T17:39:22.473Z,40.10
2022-10-15T17:41:51.053Z,39.33
2022-10-15T17:44:17.831Z,39.67
2022-10-15T17:46:44.682Z,39.22
2022-10-15T17:49:11.711Z,41.33
2022-10-15T17:51:38.733Z,38.88
2022-10-15T17:54:05.879Z,39.10
2022-10-15T17:56:35.280Z,37.78
2022-10-15T17:59:05.000Z,37.10
2022-10-15T18:04:24.280Z,36.30
2022-10-15T18:06:51.048Z,39.03
2022-10-15T18:09:17.847Z,38.97
2022-10-15T18:11:46.498Z,39.05
2022-10-15T18:14:13.390Z,48.88
2022-10-15T18:16:40.216Z,46.63
2022-10-15T18:19:06.922Z,41.70
2022-10-15T18:21:33.662Z,37.50
2022-10-15T18:24:00.427Z,36.03
2022-10-15T18:26:27.213Z,36.45
2022-10-15T18:28:54.657Z,36.75
2022-10-15T18:31:22.442Z,37.05
2022-10-15T18:33:55.529Z,36.47
2022-10-15T18:36:28.368Z,37.08
2022-10-15T18:38:56.060Z,38.50
2022-10-15T18:41:33.432Z,34.85
2022-10-15T18:44:03.183Z,35.95
2022-10-15T18:46:31.180Z,36.83
2022-10-15T18:48:58.594Z,35.42
2022-10-15T18:51:25.568Z,37.33
2022-10-15T18:53:53.257Z,35.20
2022-10-15T18:56:21.180Z,35.72
2022-10-15T18:58:48.233Z,34.90
2022-10-15T19:01:30.247Z,35.00
2022-10-15T19:03:59.457Z,34.17
2022-10-15T19:06:30.036Z,33.72
2022-10-15T19:09:00.816Z,34.05
2022-10-15T19:11:27.661Z,33.97
2022-10-15T19:13:57.313Z,33.38
2022-10-15T19:16:24.303Z,33.22
2022-10-15T19:18:51.073Z,34.03
2022-10-15T19:21:18.496Z,34.30
2022-10-15T19:23:45.336Z,34.00
2022-10-15T19:26:13.111Z,34.35
2022-10-15T19:28:40.028Z,33.58
2022-10-15T19:31:09.102Z,34.20
2022-10-15T19:33:36.377Z,33.53
2022-10-15T19:36:03.930Z,35.08
2022-10-15T19:38:30.893Z,34.47
2022-10-15T19:41:01.361Z,33.95
2022-10-15T19:43:28.102Z,36.13
2022-10-15T19:45:54.803Z,34.53
2022-10-15T19:48:22.986Z,33.83
2022-10-15T19:50:49.895Z,35.67
2022-10-15T19:53:17.578Z,36.22
2022-10-15T19:55:58.794Z,35.42
2022-10-15T19:58:26.167Z,37.35
2022-10-15T20:00:53.638Z,35.95
2022-10-15T20:03:21.731Z,37.13
2022-10-15T20:05:49.077Z,35.65
2022-10-15T20:08:16.492Z,36.17
2022-10-15T20:10:44.500Z,37.97
2022-10-15T20:13:11.990Z,36.72
2022-10-15T20:15:43.491Z,38.33
2022-10-15T20:18:10.796Z,36.05
2022-10-15T20:20:40.030Z,37.17
2022-10-15T20:23:07.139Z,37.05
2022-10-15T20:25:33.929Z,37.58
2022-10-15T20:28:00.700Z,37.22
2022-10-15T20:30:27.598Z,37.60
2022-10-15T20:32:54.330Z,38.60
2022-10-15T20:35:21.099Z,39.08
2022-10-15T20:37:47.916Z,40.70
2022-10-15T20:40:15.291Z,40.58
2022-10-15T20:42:42.052Z,38.20
2022-10-15T20:45:14.301Z,36.88
2022-10-15T20:47:46.731Z,40.33
2022-10-15T20:50:22.453Z,39.53
2022-10-15T20:52:49.435Z,38.58
2022-10-15T20:55:16.290Z,38.03
2022-10-15T20:57:43.420Z,40.35
2022-10-15T21:00:10.748Z,38.15
2022-10-15T21:02:37.502Z,38.28
2022-10-15T21:05:04.616Z,39.22
2022-10-15T21:07:31.373Z,39.25
2022-10-15T21:09:58.757Z,40.17
2022-10-15T21:12:26.345Z,39.90
2022-10-15T21:14:53.374Z,38.85
2022-10-15T21:17:20.220Z,40.85
2022-10-15T21:19:50.353Z,39.13
2022-10-15T21:22:19.563Z,38.63
2022-10-15T21:24:46.299Z,37.53
2022-10-15T21:27:13.032Z,39.67
2022-10-15T21:29:39.858Z,37.58
2022-10-15T21:32:06.580Z,40.78
2022-10-15T21:34:33.360Z,39.15
2022-10-15T21:37:00.115Z,38.03
2022-10-15T21:39:26.945Z,38.13
2022-10-15T21:41:53.728Z,38.75
2022-10-15T21:44:20.590Z,37.70
2022-10-15T21:46:47.359Z,38.28
2022-10-15T21:49:14.151Z,38.88
2022-10-15T21:51:41.089Z,39.40
2022-10-15T21:54:08.067Z,40.28
2022-10-15T21:56:35.241Z,40.45
2022-10-15T21:59:02.249Z,40.00
2022-10-15T22:01:34.258Z,40.10
2022-10-15T22:04:07.529Z,40.53
2022-10-15T22:06:35.464Z,37.80
2022-10-15T22:09:03.870Z,38.92
2022-10-15T22:11:33.166Z,36.30
2022-10-15T22:14:03.476Z,38.75
2022-10-15T22:16:32.811Z,38.90
2022-10-15T22:18:59.561Z,38.42
2022-10-15T22:21:28.913Z,38.55
2022-10-15T22:23:58.820Z,39.08
2022-10-15T22:26:31.332Z,41.05
2022-10-15T22:29:00.336Z,40.92
2022-10-15T22:31:28.452Z,39.00
2022-10-15T22:33:55.515Z,41.65
2022-10-15T22:36:26.016Z,40.85
2022-10-15T22:41:22.955Z,40.47
2022-10-15T22:43:50.193Z,36.25
2022-10-15T22:46:17.066Z,36.72
2022-10-15T22:48:44.015Z,36.97
2022-10-15T22:51:12.677Z,38.85
2022-10-15T22:53:40.070Z,40.05
2022-10-15T22:56:16.073Z,38.55
2022-10-15T22:58:43.569Z,37.88
2022-10-15T23:01:25.292Z,39.30
2022-10-15T23:03:54.280Z,37.97
2022-10-15T23:06:22.598Z,37.72
2022-10-15T23:08:50.096Z,38.78
2022-10-15T23:11:20.512Z,39.70
2022-10-15T23:13:51.745Z,37.90
2022-10-15T23:16:21.684Z,38.38
2022-10-15T23:18:56.380Z,40.10
2022-10-15T23:21:40.712Z,38.85
2022-10-15T23:24:07.664Z,41.30
2022-10-15T23:26:35.094Z,39.95
2022-10-15T23:29:05.092Z,40.78
2022-10-15T23:31:34.573Z,40.03
2022-10-15T23:34:02.887Z,38.88
2022-10-15T23:36:30.791Z,39.60
2022-10-15T23:39:00.035Z,39.92
2022-10-15T23:41:28.268Z,40.53
2022-10-15T23:43:55.148Z,41.88
2022-10-15T23:46:22.471Z,41.75
2022-10-15T23:48:49.281Z,41.25
2022-10-15T23:51:20.560Z,42.40
2022-10-15T23:53:48.305Z,39.95
2022-10-15T23:56:15.572Z,40.20
2022-10-15T23:58:42.723Z,40.90
